Time;durP1;ratioP1;P1;durP2;ratioP2;P2;SDS_P1;SDS_P2;PMS_P1;PMS_P2;Temp;Humidity;BMP_temperature;BMP_pressure;BME280_temperature;BME280_humidity;BME280_pressure;Samples;Min_cycle;Max_cycle;Signal;HPM_P1;HPM_P2
2022/10/03 00:01:27;;;;;;;2.67;1.17;;;11.60;99.90;;;;;;5034634;28;20022;-72
2022/10/03 00:04:20;;;;;;;1.90;1.08;;;11.70;99.90;;;;;;5034808;28;20050;-72
2022/10/03 00:06:52;;;;;;;2.63;1.40;;;11.70;99.90;;;;;;5017334;28;20032;-71
2022/10/03 00:09:40;;;;;;;2.47;1.80;;;11.80;99.90;;;;;;5016858;28;20377;-72
2022/10/03 00:12:41;;;;;;;1.77;1.10;;;11.80;99.90;;;;;;5034674;28;20025;-72
2022/10/03 00:15:17;;;;;;;1.48;1.38;;;11.80;99.90;;;;;;5036188;28;20040;-72
2022/10/03 00:17:53;;;;;;;2.83;1.60;;;11.80;99.90;;;;;;5019314;28;20374;-72
2022/10/03 00:20:18;;;;;;;1.42;1.33;;;11.80;99.90;;;;;;5036544;28;20086;-72
2022/10/03 00:23:06;;;;;;;3.55;1.40;;;11.90;99.90;;;;;;5036613;28;20108;-72
2022/10/03 00:25:46;;;;;;;7.05;1.50;;;11.90;99.90;;;;;;5035889;28;20017;-72
2022/10/03 00:28:41;;;;;;;1.35;1.35;;;11.90;99.90;;;;;;5035776;28;20021;-72
2022/10/03 00:31:32;;;;;;;4.82;1.58;;;11.90;99.90;;;;;;5035716;28;20025;-72
2022/10/03 00:33:59;;;;;;;1.77;1.17;;;11.90;99.90;;;;;;5017097;28;20037;-72
2022/10/03 00:36:48;;;;;;;1.90;1.40;;;11.90;99.90;;;;;;5017762;28;20036;-72
2022/10/03 00:39:19;;;;;;;2.08;1.25;;;11.90;99.90;;;;;;5035551;28;20029;-72
2022/10/03 00:41:52;;;;;;;1.58;1.25;;;11.80;99.90;;;;;;5016700;28;20384;-72
2022/10/03 00:44:53;;;;;;;1.00;1.00;;;11.80;99.90;;;;;;5034462;28;20041;-72
2022/10/03 00:47:43;;;;;;;4.07;1.70;;;11.80;99.90;;;;;;4999258;28;20040;-72
2022/10/03 00:50:39;;;;;;;1.98;1.40;;;11.80;99.90;;;;;;5034190;28;20028;-72
2022/10/03 00:53:24;;;;;;;3.67;1.40;;;11.80;99.90;;;;;;5033955;28;20033;-71
2022/10/03 00:56:06;;;;;;;1.95;1.50;;;11.90;99.90;;;;;;5033638;28;20126;-72
2022/10/03 00:58:51;;;;;;;3.15;1.40;;;11.90;99.90;;;;;;5034243;28;20104;-72
2022/10/03 01:01:41;;;;;;;6.28;1.58;;;11.90;99.90;;;;;;5016360;28;20385;-72
2022/10/03 01:04:22;;;;;;;1.95;1.27;;;11.90;99.90;;;;;;5033739;28;20048;-71
2022/10/03 01:07:19;;;;;;;2.08;1.13;;;11.90;99.90;;;;;;5016456;28;20057;-72
2022/10/03 01:10:05;;;;;;;3.20;1.20;;;11.90;99.90;;;;;;5034265;28;20025;-72
2022/10/03 01:12:54;;;;;;;3.42;1.17;;;12.00;99.90;;;;;;5034258;28;20034;-72
2022/10/03 01:16:07;;;;;;;2.80;1.00;;;12.00;99.90;;;;;;5034238;28;20104;-72
2022/10/03 01:18:57;;;;;;;4.32;0.98;;;12.00;99.90;;;;;;5027136;28;20400;-72
2022/10/03 01:21:43;;;;;;;1.00;0.90;;;12.00;99.90;;;;;;5034186;28;20425;-72
2022/10/03 01:24:17;;;;;;;1.45;1.27;;;11.90;99.90;;;;;;5034046;28;20036;-72
2022/10/03 01:26:52;;;;;;;1.88;1.35;;;11.90;99.90;;;;;;5033909;28;20022;-72
2022/10/03 01:32:37;;;;;;;1.05;1.00;;;11.90;99.90;;;;;;5038176;28;20029;-72
2022/10/03 01:35:11;;;;;;;2.15;1.08;;;11.80;99.90;;;;;;5037701;28;20056;-72
2022/10/03 01:37:37;;;;;;;5.13;1.30;;;11.80;99.90;;;;;;5019740;28;20029;-72
2022/10/03 01:40:23;;;;;;;1.58;0.90;;;11.70;99.90;;;;;;5039006;28;20079;-72
2022/10/03 01:42:54;;;;;;;4.65;1.05;;;11.70;99.90;;;;;;5020669;28;20076;-72
2022/10/03 01:45:28;;;;;;;3.08;1.17;;;11.70;99.90;;;;;;5039240;28;20033;-72
2022/10/03 01:47:57;;;;;;;2.65;0.98;;;11.60;99.90;;;;;;5020880;28;20033;-72
2022/10/03 01:50:47;;;;;;;4.57;1.05;;;11.60;99.90;;;;;;5038369;28;20029;-72
2022/10/03 01:53:35;;;;;;;4.50;2.55;;;11.50;99.90;;;;;;5038363;28;20069;-72
2022/10/03 01:56:25;;;;;;;3.90;1.67;;;11.50;99.90;;;;;;5020783;28;20033;-72
2022/10/03 01:59:16;;;;;;;4.40;1.00;;;11.50;99.90;;;;;;5020265;28;20036;-72
2022/10/03 02:02:00;;;;;;;4.88;1.40;;;11.50;99.90;;;;;;5020210;28;20052;-72
2022/10/03 02:04:35;;;;;;;2.05;1.13;;;11.50;99.90;;;;;;5037777;28;20049;-72
2022/10/03 02:07:22;;;;;;;2.85;1.00;;;11.50;99.90;;;;;;5037641;28;20431;-72
2022/10/03 02:10:05;;;;;;;3.95;1.00;;;11.50;99.90;;;;;;5036839;28;20036;-72
2022/10/03 02:12:37;;;;;;;1.58;0.90;;;11.50;99.90;;;;;;5037053;28;20028;-72
2022/10/03 02:15:27;;;;;;;5.60;1.30;;;11.50;99.90;;;;;;5019110;28;20401;-72
2022/10/03 02:17:57;;;;;;;1.70;1.05;;;11.40;99.90;;;;;;5019133;28;20029;-72
2022/10/03 02:20:41;;;;;;;3.88;0.98;;;11.40;99.90;;;;;;5019167;28;20087;-72
2022/10/03 02:23:39;;;;;;;2.95;0.80;;;11.40;99.90;;;;;;5037375;28;20025;-72
2022/10/03 02:26:26;;;;;;;3.83;0.90;;;11.40;99.90;;;;;;5036920;28;20030;-71
2022/10/03 02:28:55;;;;;;;3.25;1.10;;;11.40;99.90;;;;;;5018984;28;20420;-72
2022/10/03 02:31:47;;;;;;;1.30;0.98;;;11.40;99.90;;;;;;5036180;28;20033;-72
2022/10/03 02:34:22;;;;;;;4.05;1.30;;;11.40;99.90;;;;;;5036891;28;20025;-72
2022/10/03 02:37:26;;;;;;;4.47;1.33;;;11.50;99.90;;;;;;5037494;28;20061;-72
2022/10/03 02:40:09;;;;;;;1.92;1.10;;;11.50;99.90;;;;;;5026191;28;20504;-72
2022/10/03 02:42:56;;;;;;;1.58;1.42;;;11.50;99.90;;;;;;5036924;28;20458;-72
2022/10/03 02:45:37;;;;;;;1.65;1.40;;;11.50;99.90;;;;;;5018697;28;20095;-72
2022/10/03 02:49:00;;;;;;;2.65;1.38;;;11.50;99.90;;;;;;5019071;28;20461;-72
2022/10/03 02:51:52;;;;;;;3.70;1.80;;;11.50;99.90;;;;;;4956413;29;20031;-72
2022/10/03 02:54:39;;;;;;;3.47;1.65;;;11.40;99.90;;;;;;4955926;29;20039;-72
2022/10/03 02:57:48;;;;;;;3.67;1.48;;;11.30;99.90;;;;;;5029289;28;20034;-71
2022/10/03 03:00:29;;;;;;;5.47;2.15;;;11.30;99.90;;;;;;5036072;28;20072;-72
2022/10/03 03:03:32;;;;;;;3.78;2.35;;;11.20;99.90;;;;;;5017848;28;20056;-72
2022/10/03 03:06:03;;;;;;;4.55;1.77;;;11.20;99.90;;;;;;5035720;28;20045;-72
2022/10/03 03:08:49;;;;;;;5.63;2.42;;;11.20;99.90;;;;;;5036257;28;20087;-72
2022/10/03 03:11:43;;;;;;;4.88;2.10;;;11.20;99.90;;;;;;5036069;28;20026;-72
2022/10/03 03:14:30;;;;;;;4.97;1.92;;;11.30;99.90;;;;;;5018066;28;20037;-72
2022/10/03 03:17:28;;;;;;;3.63;1.42;;;11.40;99.90;;;;;;5018390;28;20462;-72
2022/10/03 03:19:54;;;;;;;3.42;1.60;;;11.50;99.90;;;;;;5018828;28;20426;-72
2022/10/03 03:22:57;;;;;;;3.50;1.55;;;11.60;99.90;;;;;;5036374;28;20022;-72
2022/10/03 03:25:35;;;;;;;4.65;1.73;;;11.60;99.90;;;;;;5019293;28;20469;-72
2022/10/03 03:28:18;;;;;;;3.10;1.60;;;11.60;99.90;;;;;;5019825;28;20021;-72
2022/10/03 03:31:07;;;;;;;4.32;2.20;;;11.60;99.90;;;;;;5038017;28;20029;-72
2022/10/03 03:33:42;;;;;;;4.90;1.95;;;11.50;99.90;;;;;;5036426;28;20060;-72
2022/10/03 03:36:22;;;;;;;2.22;1.73;;;11.50;99.90;;;;;;5035595;28;20079;-72
2022/10/03 03:39:24;;;;;;;1.60;1.42;;;11.40;99.90;;;;;;5035452;28;20025;-72
2022/10/03 03:42:17;;;;;;;2.90;1.45;;;11.40;99.90;;;;;;5017791;28;20124;-72
2022/10/03 03:45:08;;;;;;;7.47;1.80;;;11.30;99.90;;;;;;5035166;28;20056;-72
2022/10/03 03:47:55;;;;;;;7.10;1.65;;;11.30;99.90;;;;;;5035961;28;20033;-73
2022/10/03 03:50:24;;;;;;;5.93;1.73;;;11.30;99.90;;;;;;5017332;28;20096;-73
2022/10/03 03:53:01;;;;;;;8.00;1.88;;;11.30;99.90;;;;;;5017332;28;20029;-73
2022/10/03 03:55:45;;;;;;;4.95;1.60;;;11.30;99.90;;;;;;5034827;28;20457;-73
2022/10/03 03:58:41;;;;;;;1.55;1.45;;;11.20;99.90;;;;;;5035069;28;20025;-73
2022/10/03 04:01:17;;;;;;;7.25;2.00;;;11.10;99.90;;;;;;5034818;28;20029;-73
2022/10/03 04:04:19;;;;;;;5.63;1.83;;;11.10;99.90;;;;;;5035303;28;20107;-73
2022/10/03 04:07:35;;;;;;;4.40;1.50;;;11.10;99.90;;;;;;5035583;28;20025;-72
2022/10/03 04:10:09;;;;;;;6.13;1.90;;;11.10;99.90;;;;;;5034969;28;20033;-72
2022/10/03 04:12:54;;;;;;;4.00;1.88;;;11.10;99.90;;;;;;5034677;28;20030;-72
2022/10/03 04:16:01;;;;;;;7.82;1.98;;;11.00;99.90;;;;;;5016722;28;20033;-72
2022/10/03 04:18:59;;;;;;;2.47;1.90;;;11.00;99.90;;;;;;4954141;29;20035;-73
2022/10/03 04:21:56;;;;;;;5.80;1.80;;;11.00;99.90;;;;;;5029053;28;20029;-73
2022/10/03 04:25:04;;;;;;;5.22;1.98;;;11.00;99.90;;;;;;4985143;28;20041;-73
2022/10/03 04:27:44;;;;;;;5.18;1.80;;;11.00;99.90;;;;;;5000743;28;20033;-74
2022/10/03 04:30:13;;;;;;;3.85;1.65;;;11.00;99.90;;;;;;5016596;28;20034;-73
2022/10/03 04:33:11;;;;;;;4.13;2.15;;;11.00;99.90;;;;;;5016456;28;20489;-74
2022/10/03 04:36:17;;;;;;;4.03;1.70;;;11.00;99.90;;;;;;4948992;28;20037;-74
2022/10/03 04:39:09;;;;;;;6.60;2.40;;;11.10;99.90;;;;;;5034437;28;20100;-74
2022/10/03 04:42:04;;;;;;;4.57;1.92;;;11.10;99.90;;;;;;5016727;28;20026;-74
2022/10/03 04:45:27;;;;;;;6.53;1.90;;;11.10;99.90;;;;;;4979961;28;20112;-74
2022/10/03 04:48:17;;;;;;;3.42;2.30;;;11.10;99.90;;;;;;5032093;28;20136;-75
2022/10/03 04:51:04;;;;;;;6.28;2.30;;;11.00;99.90;;;;;;5016499;28;20029;-77
2022/10/03 04:53:45;;;;;;;4.10;2.00;;;11.00;99.90;;;;;;5033969;28;20073;-75
2022/10/03 04:56:25;;;;;;;2.35;2.10;;;11.00;99.90;;;;;;5016591;28;20029;-75
2022/10/03 04:59:00;;;;;;;4.13;1.88;;;11.00;99.90;;;;;;5034295;28;20030;-76
2022/10/03 05:01:48;;;;;;;4.50;2.00;;;10.90;99.90;;;;;;5033757;28;20029;-77
2022/10/03 05:04:22;;;;;;;2.47;2.05;;;10.90;99.90;;;;;;5016034;28;20049;-75
2022/10/03 05:07:09;;;;;;;5.00;2.17;;;10.80;99.90;;;;;;5033503;28;20025;-75
2022/10/03 05:09:57;;;;;;;4.90;2.08;;;10.80;99.90;;;;;;5033732;28;20031;-75
2022/10/03 05:12:48;;;;;;;4.95;2.40;;;10.80;99.90;;;;;;5033330;28;20466;-75
2022/10/03 05:15:21;;;;;;;2.97;1.88;;;10.80;99.90;;;;;;5033663;28;20034;-75
2022/10/03 05:18:28;;;;;;;5.50;2.10;;;10.80;99.90;;;;;;5016053;28;20057;-75
2022/10/03 05:21:09;;;;;;;4.03;2.08;;;10.80;99.90;;;;;;4987237;28;20034;-75
2022/10/03 05:23:38;;;;;;;1.70;1.55;;;10.80;99.90;;;;;;5016042;28;20033;-75
2022/10/03 05:26:23;;;;;;;6.78;2.00;;;10.80;99.90;;;;;;5015959;28;20039;-75
2022/10/03 05:29:03;;;;;;;3.95;1.90;;;10.80;99.90;;;;;;5016122;28;20022;-75
2022/10/03 05:31:52;;;;;;;5.45;2.08;;;10.80;99.90;;;;;;5033448;28;20377;-75
2022/10/03 05:34:40;;;;;;;10.00;2.53;;;10.80;99.90;;;;;;5016642;28;20034;-75
2022/10/03 05:37:29;;;;;;;4.70;1.55;;;10.80;99.90;;;;;;5016540;28;20401;-75
2022/10/03 05:39:57;;;;;;;5.05;1.70;;;10.80;99.90;;;;;;5033584;28;20377;-75
2022/10/03 05:42:35;;;;;;;2.70;1.75;;;10.80;99.90;;;;;;5033862;28;20106;-75
2022/10/03 05:45:25;;;;;;;5.25;2.00;;;10.80;99.90;;;;;;5033400;28;20057;-75
2022/10/03 05:48:08;;;;;;;5.75;2.45;;;10.80;99.90;;;;;;5033593;28;20129;-75
2022/10/03 05:50:57;;;;;;;2.75;2.20;;;10.80;99.90;;;;;;5015289;28;20109;-75
2022/10/03 05:53:31;;;;;;;6.15;2.30;;;10.80;99.90;;;;;;5033359;28;20037;-75
2022/10/03 05:56:24;;;;;;;3.63;1.92;;;10.80;99.90;;;;;;5016198;28;20068;-75
2022/10/03 05:59:19;;;;;;;3.20;1.52;;;10.90;99.90;;;;;;5015911;28;20091;-75
2022/10/03 06:02:17;;;;;;;2.78;1.50;;;11.00;99.90;;;;;;5037650;28;20048;-75
2022/10/03 06:05:28;;;;;;;5.30;1.83;;;11.00;99.90;;;;;;5019822;28;20494;-75
2022/10/03 06:08:11;;;;;;;4.43;1.73;;;11.10;99.90;;;;;;5019527;28;20117;-75
2022/10/03 06:10:59;;;;;;;5.68;2.03;;;11.20;99.90;;;;;;5035021;28;20117;-75
2022/10/03 06:13:30;;;;;;;6.70;1.40;;;11.30;99.90;;;;;;5037634;28;20033;-75
2022/10/03 06:16:32;;;;;;;4.55;1.92;;;11.50;99.90;;;;;;5022069;28;20028;-75
2022/10/03 06:19:07;;;;;;;3.60;1.40;;;11.70;99.90;;;;;;4996792;28;20030;-75
2022/10/03 06:22:10;;;;;;;2.28;1.02;;;11.80;99.90;;;;;;5021810;28;20021;-75
2022/10/03 06:25:01;;;;;;;6.95;1.00;;;11.90;99.90;;;;;;5038498;28;20482;-75
2022/10/03 06:28:01;;;;;;;3.78;1.30;;;12.20;99.90;;;;;;5006011;28;20502;-75
2022/10/03 06:30:57;;;;;;;6.13;1.20;;;12.50;99.90;;;;;;5036874;28;20029;-76
2022/10/03 06:33:57;;;;;;;3.92;0.80;;;12.70;99.90;;;;;;5036857;28;20030;-75
2022/10/03 06:36:54;;;;;;;2.90;1.00;;;12.80;99.90;;;;;;5018626;28;20108;-76
2022/10/03 06:39:47;;;;;;;3.63;1.08;;;12.90;99.90;;;;;;5018946;28;20033;-75
2022/10/03 06:42:25;;;;;;;4.72;0.85;;;12.90;99.90;;;;;;5018819;28;20466;-76
2022/10/03 06:45:09;;;;;;;4.15;0.77;;;12.80;99.90;;;;;;5036937;28;20477;-76
2022/10/03 06:47:40;;;;;;;6.93;0.90;;;12.80;99.90;;;;;;5020257;28;20428;-76
2022/10/03 06:50:45;;;;;;;5.65;0.70;;;12.80;99.90;;;;;;5036487;28;20079;-76
2022/10/03 06:53:51;;;;;;;3.00;0.57;;;13.00;99.90;;;;;;5019550;28;20034;-76
2022/10/03 06:56:30;;;;;;;5.70;1.00;;;13.20;99.90;;;;;;5035593;28;20068;-76
2022/10/03 06:59:28;;;;;;;2.45;0.65;;;13.40;99.90;;;;;;5019868;28;20382;-76
2022/10/03 07:02:08;;;;;;;2.88;0.50;;;13.50;99.90;;;;;;4965883;28;20526;-76
2022/10/03 07:04:56;;;;;;;5.80;0.88;;;13.80;99.90;;;;;;5034026;28;20053;-76
2022/10/03 07:07:33;;;;;;;3.65;0.60;;;13.90;99.90;;;;;;5018498;28;20432;-76
2022/10/03 07:10:02;;;;;;;3.28;0.90;;;14.10;99.90;;;;;;5018031;28;20025;-76
2022/10/03 07:12:59;;;;;;;3.35;0.47;;;14.40;99.90;;;;;;5035287;28;20021;-77
2022/10/03 07:15:32;;;;;;;4.28;0.85;;;14.60;99.90;;;;;;5035633;28;20040;-77
2022/10/03 07:18:26;;;;;;;2.50;0.43;;;14.90;99.90;;;;;;5017826;28;20026;-77
2022/10/03 07:21:16;;;;;;;2.55;0.57;;;15.10;99.90;;;;;;5017929;28;20025;-77
2022/10/03 07:24:02;;;;;;;6.72;0.50;;;15.40;99.90;;;;;;5017594;28;20036;-77
2022/10/03 07:26:52;;;;;;;6.75;1.10;;;15.80;99.90;;;;;;5017601;28;20032;-77
2022/10/03 07:30:02;;;;;;;2.60;0.80;;;15.80;99.90;;;;;;5027951;28;20068;-77
2022/10/03 07:32:33;;;;;;;3.50;0.30;;;15.70;99.90;;;;;;5018189;28;20026;-77
2022/10/03 07:35:21;;;;;;;4.80;0.80;;;15.40;99.90;;;;;;5017495;28;20040;-77
2022/10/03 07:40:39;;;;;;;2.88;0.40;;;15.90;99.90;;;;;;5034896;28;20044;-77
2022/10/03 07:43:07;;;;;;;3.13;0.60;;;15.90;99.90;;;;;;5016995;28;20091;-77
2022/10/03 07:46:10;;;;;;;2.85;0.43;;;16.20;99.90;;;;;;5017262;28;20029;-76
2022/10/03 07:48:39;;;;;;;4.10;0.63;;;16.50;99.90;;;;;;5017198;28;20053;-77
2022/10/03 07:51:41;;;;;;;3.95;0.32;;;16.50;99.90;;;;;;5017170;28;20025;-78
2022/10/03 07:54:24;;;;;;;4.60;0.70;;;16.40;99.90;;;;;;5016971;28;20037;-77
2022/10/03 07:56:49;;;;;;;3.63;0.50;;;16.40;99.90;;;;;;5017388;28;20029;-76
2022/10/03 07:59:56;;;;;;;4.50;0.50;;;16.40;99.90;;;;;;5017066;28;20074;-77
2022/10/03 08:02:28;;;;;;;3.05;0.55;;;16.60;99.90;;;;;;5021241;28;20434;-77
2022/10/03 08:05:22;;;;;;;4.20;0.50;;;16.50;99.90;;;;;;5016778;28;20049;-77
2022/10/03 08:08:13;;;;;;;2.40;0.45;;;16.40;99.90;;;;;;5016555;28;20029;-77
2022/10/03 08:11:20;;;;;;;4.03;0.60;;;16.70;99.90;;;;;;5016904;28;20079;-77
2022/10/03 08:13:48;;;;;;;2.70;0.68;;;16.90;99.90;;;;;;5036349;28;20068;-77
2022/10/03 08:16:49;;;;;;;4.63;0.88;;;16.90;99.90;;;;;;5054299;28;20106;-77
2022/10/03 08:19:36;;;;;;;4.95;1.45;;;16.60;99.90;;;;;;5036752;28;20029;-77
2022/10/03 08:22:16;;;;;;;3.60;0.50;;;16.50;99.90;;;;;;5053862;28;20052;-77
2022/10/03 08:25:05;;;;;;;3.95;0.60;;;16.60;99.90;;;;;;5036151;28;20037;-77
2022/10/03 08:28:07;;;;;;;5.35;0.65;;;16.40;99.90;;;;;;5036770;28;20120;-77
2022/10/03 08:31:07;;;;;;;3.53;0.60;;;16.40;99.90;;;;;;5036245;28;20067;-76
2022/10/03 08:33:53;;;;;;;3.10;0.50;;;16.30;99.90;;;;;;5053679;28;20112;-69
2022/10/03 08:36:47;;;;;;;3.17;0.40;;;16.60;99.90;;;;;;5035714;28;20433;-69
2022/10/03 08:39:19;;;;;;;5.07;1.15;;;16.60;99.90;;;;;;5053978;28;20025;-69
2022/10/03 08:41:56;;;;;;;3.30;0.45;;;16.50;99.90;;;;;;5036006;28;20025;-68
2022/10/03 08:44:49;;;;;;;2.88;0.50;;;16.30;99.60;;;;;;5053935;28;20416;-72
2022/10/03 08:47:27;;;;;;;2.85;0.30;;;16.20;97.70;;;;;;5053799;28;20021;-68
2022/10/03 08:50:08;;;;;;;5.10;0.50;;;15.70;97.50;;;;;;5053661;28;20084;-70
2022/10/03 08:53:01;;;;;;;2.15;0.20;;;15.40;97.60;;;;;;5054459;28;20025;-70
2022/10/03 08:55:58;;;;;;;6.75;0.68;;;15.20;99.30;;;;;;5053938;28;20029;-70
2022/10/03 08:58:27;;;;;;;2.35;0.20;;;15.60;98.00;;;;;;5053777;28;20465;-70
2022/10/03 09:01:11;;;;;;;1.75;0.57;;;15.70;97.70;;;;;;5053721;28;20025;-71
2022/10/03 09:04:04;;;;;;;2.20;0.30;;;15.90;97.20;;;;;;5035671;28;20057;-70
2022/10/03 09:06:52;;;;;;;1.92;0.50;;;16.30;96.40;;;;;;5035757;28;20025;-69
2022/10/03 09:09:34;;;;;;;3.35;0.20;;;16.70;95.40;;;;;;5035819;28;20028;-74
2022/10/03 09:12:18;;;;;;;2.10;0.40;;;17.10;94.50;;;;;;5053463;28;20036;-71
2022/10/03 09:15:03;;;;;;;2.05;0.17;;;17.40;93.30;;;;;;5053354;28;20041;-69
2022/10/03 09:17:48;;;;;;;2.10;0.60;;;17.80;92.80;;;;;;5053054;28;20421;-72
2022/10/03 09:21:00;;;;;;;4.80;0.35;;;18.40;91.30;;;;;;5035536;28;20029;-71
2022/10/03 09:23:50;;;;;;;1.17;0.38;;;19.10;87.80;;;;;;5035515;28;20560;-69
2022/10/03 09:26:34;;;;;;;3.97;0.30;;;18.10;85.40;;;;;;5035494;28;20032;-71
2022/10/03 09:29:05;;;;;;;6.43;0.93;;;18.30;86.30;;;;;;5053396;28;20029;-70
2022/10/03 09:31:39;;;;;;;1.08;0.30;;;19.10;84.00;;;;;;5035592;28;20025;-69
2022/10/03 09:34:34;;;;;;;1.25;0.25;;;19.60;82.90;;;;;;5052993;28;20037;-73
2022/10/03 09:37:47;;;;;;;3.65;0.47;;;20.20;75.20;;;;;;5035362;28;20025;-70
2022/10/03 09:40:38;;;;;;;3.60;0.40;;;19.60;74.30;;;;;;4948905;28;20174;-71
2022/10/03 09:43:36;;;;;;;2.35;0.32;;;18.90;76.00;;;;;;5053289;28;20036;-69
2022/10/03 09:46:02;;;;;;;;;;;17.80;78.80;;;;;;5011892;28;20052;-70
2022/10/03 09:48:43;;;;;;;1.77;0.17;;;17.60;80.60;;;;;;5054493;28;19955;-71
2022/10/03 09:51:18;;;;;;;1.50;0.30;;;18.20;80.00;;;;;;5057172;28;20156;-70
2022/10/03 09:53:46;;;;;;;2.20;0.20;;;18.60;78.60;;;;;;5057269;28;20040;-70
2022/10/03 09:56:12;;;;;;;3.13;0.20;;;18.30;77.40;;;;;;5056847;28;20036;-76
2022/10/03 09:59:04;;;;;;;1.67;0.10;;;17.80;77.70;;;;;;5038991;28;20389;-76
2022/10/03 10:01:41;;;;;;;0.63;0.10;;;17.20;79.60;;;;;;5039924;28;20095;-75
2022/10/03 10:04:41;;;;;;;2.22;0.60;;;16.80;81.10;;;;;;5038630;28;20052;-76
2022/10/03 10:07:25;;;;;;;0.82;0.10;;;17.20;81.10;;;;;;5038650;28;20477;-76
2022/10/03 10:10:16;;;;;;;4.38;0.30;;;18.80;75.70;;;;;;5038855;28;20036;-76
2022/10/03 10:13:19;;;;;;;2.75;0.22;;;19.30;73.70;;;;;;5056744;28;20361;-76
2022/10/03 10:16:22;;;;;;;5.93;0.75;;;19.40;71.40;;;;;;5038701;28;20033;-76
2022/10/03 10:19:09;;;;;;;2.20;0.17;;;19.10;71.40;;;;;;5038705;28;20543;-77
2022/10/03 10:21:58;;;;;;;3.20;0.30;;;19.80;70.50;;;;;;5056557;28;20068;-76
2022/10/03 10:24:27;;;;;;;0.40;0.10;;;19.80;69.50;;;;;;5038677;28;20025;-76
2022/10/03 10:27:38;;;;;;;4.05;0.13;;;19.10;70.20;;;;;;5038629;28;20090;-76
2022/10/03 10:30:21;;;;;;;3.92;0.32;;;18.50;71.20;;;;;;5001158;28;20033;-76
2022/10/03 10:32:46;;;;;;;3.45;0.40;;;18.40;74.40;;;;;;5056253;28;20024;-76
2022/10/03 10:35:50;;;;;;;2.00;0.50;;;18.10;78.00;;;;;;5038268;28;20048;-75
2022/10/03 10:38:42;;;;;;;4.28;0.52;;;17.80;81.60;;;;;;5038512;28;20112;-76
2022/10/03 10:41:20;;;;;;;0.55;0.10;;;17.60;78.30;;;;;;4992792;28;20097;-75
2022/10/03 10:44:22;;;;;;;2.13;0.20;;;17.60;75.50;;;;;;5037997;28;20036;-76
2022/10/03 10:47:16;;;;;;;4.90;0.30;;;17.00;77.00;;;;;;5038128;28;20020;-75
2022/10/03 10:50:11;;;;;;;0.47;0.15;;;16.60;76.80;;;;;;5037984;28;20119;-76
2022/10/03 10:52:42;;;;;;;1.23;0.50;;;16.40;77.50;;;;;;5055916;28;20053;-76
2022/10/03 10:55:45;;;;;;;1.65;0.20;;;16.50;78.90;;;;;;5038007;28;20033;-76
2022/10/03 10:58:49;;;;;;;0.88;0.40;;;16.40;78.50;;;;;;5037877;28;20025;-76
2022/10/03 11:01:32;;;;;;;0.90;0.30;;;16.30;78.40;;;;;;5055522;28;20036;-75
2022/10/03 11:04:49;;;;;;;0.88;0.10;;;16.10;79.40;;;;;;5039636;28;20397;-75
2022/10/03 11:07:17;;;;;;;1.58;0.50;;;16.10;81.60;;;;;;5055505;28;20021;-76
2022/10/03 11:10:24;;;;;;;3.10;0.25;;;17.40;78.60;;;;;;5037948;28;20028;-76
2022/10/03 11:13:39;;;;;;;4.13;0.63;;;17.50;76.30;;;;;;4939063;29;20519;-77
2022/10/03 11:16:42;;;;;;;2.95;0.22;;;18.80;74.70;;;;;;4955093;29;20534;-77
2022/10/03 11:19:36;;;;;;;5.65;0.20;;;20.10;70.80;;;;;;5038054;28;20457;-76
2022/10/03 11:22:23;;;;;;;5.63;0.63;;;20.80;66.90;;;;;;5037872;28;20033;-76
2022/10/03 11:24:57;;;;;;;2.60;0.20;;;20.60;66.20;;;;;;5055127;28;20071;-76
2022/10/03 11:27:48;;;;;;;2.65;0.30;;;20.70;66.20;;;;;;5037311;28;20021;-76
2022/10/03 11:30:16;;;;;;;0.40;0.10;;;21.50;63.80;;;;;;5037435;28;20350;-75
2022/10/03 11:32:57;;;;;;;2.42;0.28;;;22.50;63.00;;;;;;5037410;28;20123;-75
2022/10/03 11:35:47;;;;;;;1.10;0.10;;;21.70;60.80;;;;;;5055132;28;20402;-75
2022/10/03 11:38:23;;;;;;;1.08;0.10;;;20.10;63.90;;;;;;5037073;28;20021;-76
2022/10/03 11:40:55;;;;;;;3.90;0.10;;;18.90;67.20;;;;;;5055210;28;20104;-76
2022/10/03 11:43:39;;;;;;;0.80;0.10;;;18.30;69.50;;;;;;5037007;28;20029;-75
2022/10/03 11:46:56;;;;;;;1.92;0.20;;;17.70;71.30;;;;;;5036936;28;20112;-75
2022/10/03 11:49:39;;;;;;;1.48;0.20;;;17.20;74.80;;;;;;4938266;29;20027;-75
2022/10/03 11:52:22;;;;;;;6.03;0.38;;;17.00;81.90;;;;;;4954437;29;20031;-75
2022/10/03 11:55:03;;;;;;;1.00;0.22;;;18.60;78.70;;;;;;5007997;28;20052;-76
2022/10/03 11:57:35;;;;;;;1.35;0.20;;;19.80;72.20;;;;;;5037007;28;20028;-76
2022/10/03 12:00:16;;;;;;;0.57;0.10;;;19.60;70.60;;;;;;5037286;28;20036;-75
2022/10/03 12:02:51;;;;;;;0.77;0.22;;;19.60;71.10;;;;;;5037257;28;20025;-75
2022/10/03 12:08:53;;;;;;;3.65;0.10;;;19.90;68.80;;;;;;5054575;28;20028;-76
2022/10/03 12:08:55;;;;;;;1.17;0.40;;;20.40;67.40;;;;;;5051505;28;20036;-76
2022/10/03 12:11:45;;;;;;;2.45;0.30;;;20.00;67.50;;;;;;5042198;28;20451;-77
2022/10/03 12:14:22;;;;;;;1.60;0.20;;;19.00;70.90;;;;;;5025353;28;20079;-77
2022/10/03 12:17:06;;;;;;;3.50;0.17;;;19.00;70.70;;;;;;5043266;28;20048;-76
2022/10/03 12:19:36;;;;;;;2.80;0.90;;;19.00;72.80;;;;;;5042971;28;20103;-76
2022/10/03 12:22:21;;;;;;;3.10;0.20;;;18.70;73.40;;;;;;5043521;28;20490;-77
2022/10/03 12:24:49;;;;;;;1.08;0.10;;;18.80;74.20;;;;;;5026978;28;20045;-77
2022/10/03 12:27:36;;;;;;;0.43;0.20;;;19.40;73.00;;;;;;5024880;28;20028;-76
2022/10/03 12:30:11;;;;;;;0.73;0.38;;;19.80;69.70;;;;;;5044271;28;20028;-77
2022/10/03 12:32:40;;;;;;;2.72;0.30;;;19.80;69.50;;;;;;5042397;28;20039;-76
2022/10/03 12:35:49;;;;;;;0.28;0.13;;;20.10;68.50;;;;;;5025734;28;20037;-77
2022/10/03 12:38:39;;;;;;;3.28;0.17;;;20.20;69.00;;;;;;5043508;28;20075;-77
2022/10/03 12:41:10;;;;;;;3.28;0.30;;;21.00;66.80;;;;;;5025217;28;20036;-77
2022/10/03 12:43:48;;;;;;;1.23;0.15;;;21.00;67.10;;;;;;5024667;28;20463;-76
2022/10/03 12:46:25;;;;;;;2.53;0.20;;;21.40;67.20;;;;;;5030663;28;20483;-76
2022/10/03 12:48:59;;;;;;;0.52;0.10;;;21.60;65.30;;;;;;5036091;28;20029;-75
2022/10/03 12:51:53;;;;;;;0.90;0.25;;;21.50;64.80;;;;;;5053877;28;20029;-77
2022/10/03 12:54:33;;;;;;;5.28;0.20;;;21.40;64.30;;;;;;5053640;28;20033;-77
2022/10/03 12:57:31;;;;;;;0.52;0.13;;;20.80;65.50;;;;;;5035892;28;20021;-76
2022/10/03 12:59:59;;;;;;;1.77;0.20;;;20.70;64.00;;;;;;5035926;28;20029;-79
2022/10/03 13:02:46;;;;;;;0.20;0.05;;;20.10;65.70;;;;;;5036407;28;20470;-79
2022/10/03 13:05:35;;;;;;;4.75;0.30;;;19.80;66.20;;;;;;5035562;28;20075;-78
2022/10/03 13:08:21;;;;;;;0.57;0.08;;;19.70;66.50;;;;;;5054244;28;20059;-78
2022/10/03 13:11:06;;;;;;;1.60;0.30;;;19.20;64.80;;;;;;5053693;28;20083;-78
2022/10/03 13:13:48;;;;;;;0.90;0.10;;;19.10;66.80;;;;;;5035647;28;20481;-77
2022/10/03 13:16:30;;;;;;;1.60;0.10;;;19.90;65.40;;;;;;5035709;28;20040;-78
2022/10/03 13:19:11;;;;;;;0.90;0.20;;;20.30;63.80;;;;;;5053495;28;20028;-80
2022/10/03 13:22:02;;;;;;;2.28;0.03;;;20.10;64.20;;;;;;5053336;28;20497;-80
2022/10/03 13:24:34;;;;;;;1.88;0.25;;;20.00;65.90;;;;;;5039718;28;20121;-78
2022/10/03 13:27:29;;;;;;;0.85;0.10;;;20.10;67.20;;;;;;5057488;28;20071;-78
2022/10/03 13:30:19;;;;;;;0.80;0.10;;;20.10;67.40;;;;;;5028479;28;20033;-79
2022/10/03 13:33:00;;;;;;;4.22;0.10;;;20.40;68.20;;;;;;5057182;28;20124;-78
2022/10/03 13:38:45;;;;;;;1.38;0.32;;;19.60;70.70;;;;;;5057200;28;20029;-78
2022/10/03 13:41:24;;;;;;;2.83;0.20;;;18.40;74.30;;;;;;5039316;28;20025;-78
2022/10/03 13:44:03;;;;;;;1.55;0.22;;;17.60;77.70;;;;;;5057420;28;20036;-78
2022/10/03 13:46:52;;;;;;;0.40;0.15;;;17.20;79.10;;;;;;5056975;28;20024;-78
2022/10/03 13:49:31;;;;;;;1.70;0.32;;;16.60;81.70;;;;;;5039271;28;20497;-78
2022/10/03 13:52:24;;;;;;;0.40;0.10;;;16.20;85.20;;;;;;5039239;28;20032;-78
2022/10/03 13:54:59;;;;;;;2.10;0.25;;;16.00;86.00;;;;;;5039155;28;20037;-78
2022/10/03 13:57:55;;;;;;;3.00;0.20;;;15.50;86.50;;;;;;5039955;28;20457;-79
2022/10/03 14:00:25;;;;;;;3.20;0.20;;;15.30;88.40;;;;;;5057067;28;20029;-78
2022/10/03 14:03:12;;;;;;;0.93;0.10;;;15.20;89.00;;;;;;5039105;28;20028;-78
2022/10/03 14:05:56;;;;;;;3.67;0.10;;;14.80;93.00;;;;;;5057246;28;20021;-78
2022/10/03 14:08:47;;;;;;;0.90;0.10;;;14.30;99.70;;;;;;5039024;28;20032;-77
2022/10/03 14:11:21;;;;;;;0.57;0.20;;;13.90;99.90;;;;;;5039195;28;20388;-77
2022/10/03 14:14:01;;;;;;;1.20;0.20;;;13.70;99.90;;;;;;5056436;28;20059;-77
2022/10/03 14:16:39;;;;;;;0.65;0.20;;;13.60;99.90;;;;;;5057052;28;20028;-76
2022/10/03 14:19:19;;;;;;;1.52;0.20;;;13.50;99.90;;;;;;5039577;28;20029;-76
2022/10/03 14:22:18;;;;;;;2.90;0.30;;;13.50;99.90;;;;;;5038934;28;20062;-76
2022/10/03 14:24:47;;;;;;;;;;;13.90;99.90;;;;;;5039168;28;20457;-76
2022/10/03 14:27:23;;;;;;;0.85;0.40;;;14.00;99.90;;;;;;5038656;28;19905;-77
2022/10/03 14:30:05;;;;;;;1.27;0.17;;;14.20;99.90;;;;;;5056145;28;20029;-58
2022/10/03 14:32:34;;;;;;;1.27;0.15;;;14.60;99.90;;;;;;5056242;28;20033;-58
2022/10/03 14:35:18;;;;;;;0.97;0.27;;;15.00;99.90;;;;;;5055312;28;20033;-58